createdAt,value
2023-02-27T00:03:33.004Z,96223.25
2023-02-27T00:13:36.193Z,96230.41
2023-02-27T00:23:39.928Z,96222.41
2023-02-27T00:33:42.408Z,96213.56
2023-02-27T00:43:47.235Z,96221.09
2023-02-27T00:53:50.400Z,96216.75
2023-02-27T01:03:54.191Z,96220.75
2023-02-27T01:13:56.986Z,96213.31
2023-02-27T01:24:01.023Z,96212.91
2023-02-27T01:34:03.571Z,96217.41
2023-02-27T01:44:08.633Z,96214.28
2023-02-27T01:54:12.549Z,96216.31
2023-02-27T02:04:22.458Z,96215.41
2023-02-27T02:14:24.880Z,96214.91
2023-02-27T02:24:42.560Z,96211.91
2023-02-27T02:35:01.268Z,96207.34
2023-02-27T02:45:10.784Z,96207.78
2023-02-27T02:55:18.012Z,96206.84
2023-02-27T03:05:25.052Z,96218.94
2023-02-27T03:15:29.184Z,96218.63
2023-02-27T03:25:34.184Z,96219.91
2023-02-27T03:35:42.406Z,96222.31
2023-02-27T03:45:53.843Z,96225.97
2023-02-27T03:55:57.298Z,96239.44
2023-02-27T04:06:21.439Z,96253.16
2023-02-27T04:16:32.631Z,96250.56
2023-02-27T04:26:40.287Z,96260.25
2023-02-27T04:36:44.802Z,96259.50
2023-02-27T04:46:49.533Z,96252.22
2023-02-27T04:56:53.607Z,96250.66
2023-02-27T05:06:57.480Z,96257.31
2023-02-27T05:17:04.471Z,96259.19
2023-02-27T05:27:26.386Z,96259.31
2023-02-27T05:37:30.859Z,96267.00
2023-02-27T05:47:37.824Z,96265.28
2023-02-27T05:57:43.006Z,96272.09
2023-02-27T06:07:46.797Z,96273.25
2023-02-27T06:17:49.345Z,96281.13
2023-02-27T06:27:53.735Z,96284.13
2023-02-27T06:37:56.820Z,96299.44
2023-02-27T06:48:00.818Z,96301.03
2023-02-27T06:58:03.283Z,96307.69
2023-02-27T07:08:07.080Z,96320.56
2023-02-27T07:18:09.621Z,96333.09
2023-02-27T07:28:13.398Z,96346.72
2023-02-27T07:38:15.949Z,96345.31
2023-02-27T07:48:20.227Z,96338.53
2023-02-27T07:58:22.694Z,96337.28
2023-02-27T08:08:26.522Z,96335.53
2023-02-27T08:18:29.244Z,96353.00
2023-02-27T08:28:32.996Z,96363.25
2023-02-27T08:38:35.694Z,96376.06
2023-02-27T08:48:39.680Z,96371.06
2023-02-27T08:58:42.076Z,96375.66
2023-02-27T09:08:45.835Z,96384.03
2023-02-27T09:18:48.274Z,96386.75
2023-02-27T09:28:52.169Z,96392.78
2023-02-27T09:38:54.875Z,96389.06
2023-02-27T09:48:59.819Z,96379.97
2023-02-27T09:59:04.941Z,96379.84
2023-02-27T10:09:17.062Z,96383.81
2023-02-27T10:19:24.039Z,96406.91
2023-02-27T10:29:31.052Z,96406.09
2023-02-27T10:39:39.028Z,96408.78
2023-02-27T10:49:43.791Z,96417.94
2023-02-27T10:59:52.281Z,96419.63
2023-02-27T11:10:01.184Z,96417.06
2023-02-27T11:20:06.124Z,96429.72
2023-02-27T11:30:22.435Z,96415.56
2023-02-27T11:40:30.021Z,96408.72
2023-02-27T11:50:43.808Z,96402.72
2023-02-27T12:00:49.963Z,96399.84
2023-02-27T12:11:07.764Z,96409.31
2023-02-27T12:21:18.465Z,96402.72
2023-02-27T12:31:28.406Z,96405.84
2023-02-27T12:41:36.936Z,96413.75
2023-02-27T12:51:44.593Z,96397.75
2023-02-27T13:01:50.585Z,96401.78
2023-02-27T13:11:59.517Z,96402.91
2023-02-27T13:22:08.144Z,96397.91
2023-02-27T13:32:17.639Z,96395.00
2023-02-27T13:42:38.518Z,96387.16
2023-02-27T13:52:42.406Z,96383.31
2023-02-27T14:02:58.837Z,96394.91
2023-02-27T14:13:05.202Z,96390.84
2023-02-27T14:23:19.720Z,96391.59
2023-02-27T14:33:39.082Z,96403.72
2023-02-27T14:43:44.951Z,96398.84
2023-02-27T14:53:59.883Z,96401.28
2023-02-27T15:04:02.488Z,96405.03
2023-02-27T15:14:07.278Z,96412.38
2023-02-27T15:24:22.360Z,96426.34
2023-02-27T15:34:26.252Z,96435.59
2023-02-27T15:44:31.338Z,96427.84
2023-02-27T15:54:36.388Z,96452.59
2023-02-27T16:04:38.862Z,96455.75
2023-02-27T16:14:43.288Z,96473.81
2023-02-27T16:24:46.198Z,96487.44
2023-02-27T16:34:50.100Z,96494.06
2023-02-27T16:44:52.551Z,96513.50
2023-02-27T16:54:56.381Z,96519.63
2023-02-27T17:04:58.920Z,96525.06
2023-02-27T17:15:02.791Z,96546.13
2023-02-27T17:25:06.697Z,96545.31
2023-02-27T17:35:10.964Z,96558.75
2023-02-27T17:45:14.420Z,96571.78
2023-02-27T17:55:18.953Z,96584.78
2023-02-27T18:05:21.413Z,96587.56
2023-02-27T18:15:25.244Z,96593.63
2023-02-27T18:25:29.329Z,96601.16
2023-02-27T18:35:33.164Z,96598.06
2023-02-27T18:45:35.755Z,96591.00
2023-02-27T18:55:39.624Z,96604.63
2023-02-27T19:05:42.484Z,96608.72
2023-02-27T19:15:46.338Z,96605.72
2023-02-27T19:25:51.673Z,96606.41
2023-02-27T19:35:55.446Z,96603.59
2023-02-27T19:45:57.931Z,96602.56
2023-02-27T19:56:02.443Z,96612.16
2023-02-27T20:06:06.368Z,96607.19
2023-02-27T20:16:11.229Z,96605.16
2023-02-27T20:26:16.015Z,96610.53
2023-02-27T20:36:19.859Z,96597.66
2023-02-27T20:46:23.406Z,96589.25
2023-02-27T20:56:28.147Z,96591.25
2023-02-27T21:06:31.989Z,96580.19
2023-02-27T21:16:36.632Z,96574.94
2023-02-27T21:26:39.840Z,96577.16
2023-02-27T21:36:44.323Z,96571.19
2023-02-27T21:46:46.968Z,96563.41
2023-02-27T21:56:50.820Z,96557.56
2023-02-27T22:06:53.495Z,96552.38
2023-02-27T22:16:57.268Z,96549.94
2023-02-27T22:27:01.355Z,96553.38
2023-02-27T22:37:05.307Z,96552.75
2023-02-27T22:47:07.734Z,96547.63
2023-02-27T22:57:13.320Z,96535.84
2023-02-27T23:07:16.505Z,96532.81
2023-02-27T23:17:25.134Z,96524.31
2023-02-27T23:27:27.589Z,96516.75
2023-02-27T23:37:31.484Z,96524.19
2023-02-27T23:47:43.755Z,96527.06
2023-02-27T23:57:47.697Z,96521.81
